createdAt,value
2023-02-22T00:02:25.827Z,101345.53
2023-02-22T00:04:58.350Z,101349.16
2023-02-22T00:07:34.202Z,101349.16
2023-02-22T00:10:09.658Z,101340.22
2023-02-22T00:12:46.100Z,101349.25
2023-02-22T00:15:19.601Z,101341.19
2023-02-22T00:17:52.361Z,101339.75
2023-02-22T00:20:25.275Z,101333.53
2023-02-22T00:23:21.956Z,101334.81
2023-02-22T00:25:54.355Z,101335.69
2023-02-22T00:28:30.926Z,101337.50
2023-02-22T00:31:04.258Z,101339.19
2023-02-22T00:33:37.281Z,101341.19
2023-02-22T00:36:15.128Z,101334.25
2023-02-22T00:38:54.974Z,101336.50
2023-02-22T00:41:26.406Z,101326.88
2023-02-22T00:43:58.047Z,101328.03
2023-02-22T00:46:29.885Z,101329.44
2023-02-22T00:49:04.525Z,101323.22
2023-02-22T00:51:38.233Z,101329.44
2023-02-22T00:54:21.091Z,101328.75
2023-02-22T00:56:55.517Z,101322.25
2023-02-22T00:59:28.177Z,101335.09
2023-02-22T01:02:00.277Z,101332.75
2023-02-22T01:04:41.555Z,101333.28
2023-02-22T01:07:14.717Z,101328.94
2023-02-22T01:09:49.625Z,101330.75
2023-02-22T01:12:21.434Z,101334.44
2023-02-22T01:14:57.307Z,101340.75
2023-02-22T01:17:29.463Z,101328.50
2023-02-22T01:20:01.539Z,101336.81
2023-02-22T01:22:33.494Z,101329.44
2023-02-22T01:25:09.011Z,101331.84
2023-02-22T01:27:42.410Z,101323.38
2023-02-22T01:30:16.805Z,101320.84
2023-02-22T01:32:51.449Z,101318.84
2023-02-22T01:35:26.286Z,101312.53
2023-02-22T01:37:58.396Z,101316.34
2023-02-22T01:40:36.283Z,101313.41
2023-02-22T01:43:18.725Z,101318.78
2023-02-22T01:45:58.484Z,101316.38
2023-02-22T01:48:37.231Z,101307.63
2023-02-22T01:51:14.947Z,101308.19
2023-02-22T01:53:53.634Z,101301.56
2023-02-22T01:56:30.978Z,101304.25
2023-02-22T01:59:07.237Z,101303.41
2023-02-22T02:01:43.325Z,101297.78
2023-02-22T02:04:18.703Z,101314.84
2023-02-22T02:06:51.818Z,101310.03
2023-02-22T02:09:32.027Z,101308.50
2023-02-22T02:12:08.509Z,101307.22
2023-02-22T02:14:41.260Z,101307.50
2023-02-22T02:17:16.554Z,101302.16
2023-02-22T02:19:55.718Z,101301.72
2023-02-22T02:22:45.810Z,101298.03
2023-02-22T02:25:53.069Z,101301.28
2023-02-22T02:29:04.750Z,101300.03
2023-02-22T02:32:13.420Z,101301.13
2023-02-22T02:34:58.843Z,101296.91
2023-02-22T02:37:40.611Z,101295.91
2023-02-22T02:40:24.100Z,101284.19
2023-02-22T02:43:04.013Z,101296.06
2023-02-22T02:45:42.369Z,101294.97
2023-02-22T02:48:17.733Z,101291.56
2023-02-22T02:50:53.851Z,101297.75
2023-02-22T02:53:36.429Z,101288.88
2023-02-22T02:56:09.103Z,101294.25
2023-02-22T02:58:53.382Z,101288.00
2023-02-22T03:01:48.437Z,101292.41
2023-02-22T03:04:47.513Z,101293.09
2023-02-22T03:07:43.593Z,101297.47
2023-02-22T03:10:42.112Z,101287.69
2023-02-22T03:13:22.967Z,101281.13
2023-02-22T03:16:05.417Z,101280.69
2023-02-22T03:18:48.102Z,101280.09
2023-02-22T03:21:27.904Z,101284.09
2023-02-22T03:24:21.794Z,101278.41
2023-02-22T03:27:00.426Z,101282.25
2023-02-22T03:29:37.627Z,101276.19
2023-02-22T03:32:15.468Z,101278.72
2023-02-22T03:34:50.999Z,101284.50
2023-02-22T03:37:36.264Z,101279.97
2023-02-22T03:40:27.007Z,101286.75
2023-02-22T03:43:41.586Z,101280.97
2023-02-22T03:46:23.351Z,101282.66
2023-02-22T03:49:03.461Z,101283.81
2023-02-22T03:51:35.926Z,101283.22
2023-02-22T03:54:17.136Z,101287.69
2023-02-22T03:57:01.931Z,101292.41
2023-02-22T03:59:34.092Z,101287.72
2023-02-22T04:02:06.176Z,101291.97
2023-02-22T04:04:52.377Z,101292.41
2023-02-22T04:07:39.925Z,101290.28
2023-02-22T04:10:12.720Z,101287.72
2023-02-22T04:12:47.467Z,101277.56
2023-02-22T04:15:54.530Z,101284.34
2023-02-22T04:18:24.386Z,101285.91
2023-02-22T04:20:56.606Z,101289.28
2023-02-22T04:23:28.933Z,101292.53
2023-02-22T04:26:01.331Z,101280.38
2023-02-22T04:28:36.008Z,101285.34
2023-02-22T04:31:08.917Z,101281.63
2023-02-22T04:33:40.996Z,101290.38
2023-02-22T04:36:16.382Z,101278.84
2023-02-22T04:38:48.533Z,101290.28
2023-02-22T04:41:23.872Z,101286.75
2023-02-22T04:43:59.796Z,101283.66
2023-02-22T04:46:32.139Z,101280.97
2023-02-22T04:49:04.465Z,101282.38
2023-02-22T04:51:37.127Z,101278.28
2023-02-22T04:54:09.336Z,101272.94
2023-02-22T04:56:41.934Z,101274.88
2023-02-22T04:59:16.696Z,101281.94
2023-02-22T05:01:49.336Z,101280.94
2023-02-22T05:04:45.562Z,101269.88
2023-02-22T05:07:18.443Z,101268.44
2023-02-22T05:09:50.420Z,101273.41
2023-02-22T05:12:22.849Z,101276.53
2023-02-22T05:14:57.502Z,101275.66
2023-02-22T05:17:29.844Z,101273.53
2023-02-22T05:20:02.201Z,101275.75
2023-02-22T05:22:34.681Z,101271.72
2023-02-22T05:25:07.492Z,101264.88
2023-02-22T05:27:39.891Z,101268.94
2023-02-22T05:30:16.839Z,101262.91
2023-02-22T05:32:49.752Z,101263.28
2023-02-22T05:35:22.536Z,101272.84
2023-02-22T05:37:55.453Z,101270.50
2023-02-22T05:40:29.815Z,101266.97
2023-02-22T05:43:03.257Z,101270.94
2023-02-22T05:45:37.756Z,101279.56
2023-02-22T05:48:09.878Z,101273.50
2023-02-22T05:50:41.796Z,101279.13
2023-02-22T05:53:14.207Z,101278.84
2023-02-22T05:55:46.632Z,101282.34
2023-02-22T05:58:19.309Z,101278.84
2023-02-22T06:00:53.875Z,101289.69
2023-02-22T06:03:26.096Z,101278.44
2023-02-22T06:05:58.298Z,101283.22
2023-02-22T06:08:30.572Z,101286.47
2023-02-22T06:11:30.552Z,101284.91
2023-02-22T06:14:02.820Z,101290.97
2023-02-22T06:16:37.709Z,101296.63
2023-02-22T06:19:09.903Z,101296.59
2023-02-22T06:21:42.392Z,101298.31
2023-02-22T06:24:14.630Z,101304.50
2023-02-22T06:26:46.603Z,101299.31
2023-02-22T06:29:18.985Z,101299.59
2023-02-22T06:31:54.299Z,101302.44
2023-02-22T06:34:26.389Z,101296.34
2023-02-22T06:36:59.994Z,101291.81
2023-02-22T06:39:32.384Z,101303.97
2023-02-22T06:42:04.771Z,101304.66
2023-02-22T06:44:37.153Z,101307.09
2023-02-22T06:47:11.757Z,101305.41
2023-02-22T06:49:44.010Z,101307.34
2023-02-22T06:52:15.811Z,101314.84
2023-02-22T06:54:47.999Z,101314.56
2023-02-22T06:57:20.793Z,101314.97
2023-02-22T06:59:52.958Z,101316.41
2023-02-22T07:02:33.008Z,101321.47
2023-02-22T07:05:18.547Z,101320.59
2023-02-22T07:07:52.708Z,101322.88
2023-02-22T07:10:31.320Z,101325.72
2023-02-22T07:13:03.719Z,101331.22
2023-02-22T07:15:37.036Z,101328.69
2023-02-22T07:18:12.333Z,101329.78
2023-02-22T07:20:44.450Z,101336.84
2023-02-22T07:23:18.334Z,101332.28
2023-02-22T07:25:50.335Z,101340.47
2023-02-22T07:28:22.236Z,101340.66
2023-02-22T07:30:54.658Z,101338.78
2023-02-22T07:33:29.230Z,101330.78
2023-02-22T07:36:01.816Z,101330.34
2023-02-22T07:38:34.154Z,101335.00
2023-02-22T07:41:06.739Z,101328.66
2023-02-22T07:43:39.229Z,101328.41
2023-02-22T07:46:11.735Z,101335.56
2023-02-22T07:48:46.871Z,101325.25
2023-02-22T07:51:21.195Z,101334.16
2023-02-22T07:53:53.340Z,101331.63
2023-02-22T07:56:25.573Z,101330.34
2023-02-22T07:58:57.523Z,101331.75
2023-02-22T08:01:29.835Z,101330.06
2023-02-22T08:04:04.677Z,101332.84
2023-02-22T08:06:37.191Z,101335.56
2023-02-22T08:09:09.614Z,101343.47
2023-02-22T08:11:42.316Z,101341.63
2023-02-22T08:14:14.711Z,101335.25
2023-02-22T08:16:47.490Z,101341.91
2023-02-22T08:19:23.263Z,101339.78
2023-02-22T08:21:56.112Z,101339.84
2023-02-22T08:24:28.484Z,101337.78
2023-02-22T08:27:01.113Z,101340.91
2023-02-22T08:29:34.711Z,101338.94
2023-02-22T08:32:08.269Z,101340.91
2023-02-22T08:34:43.838Z,101332.50
2023-02-22T08:37:17.115Z,101339.19
2023-02-22T08:39:50.192Z,101342.56
2023-02-22T08:42:23.255Z,101334.25
2023-02-22T08:44:56.376Z,101331.13
2023-02-22T08:47:30.182Z,101329.75
2023-02-22T08:50:05.537Z,101328.84
2023-02-22T08:52:38.688Z,101334.53
2023-02-22T08:55:12.172Z,101334.59
2023-02-22T08:57:45.531Z,101339.91
2023-02-22T09:00:20.267Z,101333.78
2023-02-22T09:02:54.099Z,101330.94
2023-02-22T09:05:31.320Z,101327.78
2023-02-22T09:08:05.457Z,101335.78
2023-02-22T09:10:41.132Z,101334.91
2023-02-22T09:13:14.607Z,101333.78
2023-02-22T09:15:46.889Z,101335.34
2023-02-22T09:18:21.492Z,101330.25
2023-02-22T09:20:56.647Z,101339.50
2023-02-22T09:23:30.289Z,101334.53
2023-02-22T09:26:02.925Z,101333.94
2023-02-22T09:28:35.525Z,101331.84
2023-02-22T09:31:08.084Z,101334.81
2023-02-22T09:33:40.811Z,101334.03
2023-02-22T09:36:16.159Z,101338.81
2023-02-22T09:38:49.006Z,101335.06
2023-02-22T09:41:35.214Z,101323.91
2023-02-22T09:44:20.203Z,101327.94
2023-02-22T09:46:56.530Z,101322.19
2023-02-22T09:49:38.239Z,101319.72
2023-02-22T09:52:22.125Z,101323.97
2023-02-22T09:55:05.547Z,101318.16
2023-02-22T09:57:42.993Z,101322.09
2023-02-22T10:00:21.583Z,101318.25
2023-02-22T10:03:04.374Z,101315.00
2023-02-22T10:05:44.142Z,101317.63
2023-02-22T10:11:28.971Z,101314.63
2023-02-22T10:14:09.897Z,101312.84
2023-02-22T10:16:53.761Z,101310.22
2023-02-22T10:19:35.848Z,101312.69
2023-02-22T10:22:30.770Z,101314.47
2023-02-22T10:25:09.798Z,101311.19
2023-02-22T10:27:46.566Z,101308.06
2023-02-22T10:30:25.738Z,101303.09
2023-02-22T10:33:05.748Z,101307.47
2023-02-22T10:35:41.536Z,101303.03
2023-02-22T10:38:23.929Z,101296.63
2023-02-22T10:41:04.207Z,101307.94
2023-02-22T10:43:36.799Z,101305.66
2023-02-22T10:46:12.807Z,101293.06
2023-02-22T10:48:48.324Z,101301.44
2023-02-22T10:51:34.205Z,101295.69
2023-02-22T10:54:27.249Z,101291.50
2023-02-22T10:57:04.521Z,101295.63
2023-02-22T10:59:38.842Z,101294.69
2023-02-22T11:02:21.800Z,101289.94
2023-02-22T11:04:57.460Z,101294.13
2023-02-22T11:07:32.218Z,101292.84
2023-02-22T11:10:08.559Z,101295.63
2023-02-22T11:12:48.247Z,101293.00
2023-02-22T11:15:32.319Z,101292.72
2023-02-22T11:18:07.511Z,101287.19
2023-02-22T11:20:43.358Z,101291.72
2023-02-22T11:23:15.940Z,101286.88
2023-02-22T11:25:48.564Z,101290.53
2023-02-22T11:28:33.207Z,101287.53
2023-02-22T11:31:19.824Z,101278.44
2023-02-22T11:33:58.479Z,101276.47
2023-02-22T11:36:41.404Z,101281.63
2023-02-22T11:39:28.474Z,101266.69
2023-02-22T11:42:01.602Z,101276.69
2023-02-22T11:44:37.279Z,101269.81
2023-02-22T11:47:15.755Z,101265.81
2023-02-22T11:49:49.562Z,101260.38
2023-02-22T11:52:28.729Z,101256.03
2023-02-22T11:55:13.115Z,101254.22
2023-02-22T11:57:57.514Z,101252.84
2023-02-22T12:00:43.836Z,101249.75
2023-02-22T12:03:42.529Z,101246.34
2023-02-22T12:06:25.773Z,101244.94
2023-02-22T12:09:10.549Z,101241.91
2023-02-22T12:11:55.374Z,101242.13
2023-02-22T12:14:38.437Z,101240.66
2023-02-22T12:17:35.516Z,101236.00
2023-02-22T12:20:21.927Z,101239.50
2023-02-22T12:23:10.192Z,101245.56
2023-02-22T12:25:50.999Z,101225.72
2023-02-22T12:28:28.199Z,101231.88
2023-02-22T12:31:17.865Z,101225.66
2023-02-22T12:34:13.265Z,101231.22
2023-02-22T12:36:52.276Z,101234.50
2023-02-22T12:39:52.224Z,101234.81
2023-02-22T12:42:33.285Z,101233.78
2023-02-22T12:45:11.772Z,101224.91
2023-02-22T12:48:05.648Z,101231.53
2023-02-22T12:50:50.160Z,101230.47
2023-02-22T12:53:29.204Z,101230.75
2023-02-22T12:59:30.044Z,101219.25
2023-02-22T13:02:15.049Z,101219.44
2023-02-22T13:04:47.971Z,101226.13
2023-02-22T13:07:43.606Z,101227.97
2023-02-22T13:10:38.845Z,101230.91
2023-02-22T13:13:23.028Z,101215.06
2023-02-22T13:16:04.489Z,101216.50
2023-02-22T13:18:43.131Z,101208.16
2023-02-22T13:21:24.053Z,101212.84
2023-02-22T13:24:06.933Z,101208.06
2023-02-22T13:26:48.728Z,101214.19
2023-02-22T13:29:32.009Z,101217.25
2023-02-22T13:32:17.323Z,101211.75
2023-02-22T13:35:01.491Z,101207.53
2023-02-22T13:37:50.489Z,101207.84
2023-02-22T13:40:47.246Z,101202.06
2023-02-22T13:43:52.164Z,101203.81
2023-02-22T13:46:59.544Z,101201.91
2023-02-22T13:49:50.746Z,101200.72
2023-02-22T13:52:25.507Z,101203.31
2023-02-22T13:55:01.762Z,101200.59
2023-02-22T13:57:41.064Z,101212.31
2023-02-22T14:00:43.283Z,101204.22
2023-02-22T14:03:36.671Z,101196.31
2023-02-22T14:06:10.181Z,101202.53
2023-02-22T14:08:43.445Z,101194.34
2023-02-22T14:11:43.926Z,101195.19
2023-02-22T14:14:20.702Z,101190.97
2023-02-22T14:17:27.589Z,101192.31
2023-02-22T14:20:30.443Z,101188.16
2023-02-22T14:23:37.320Z,101189.22
2023-02-22T14:26:20.527Z,101188.13
2023-02-22T14:28:57.744Z,101183.63
2023-02-22T14:31:37.648Z,101176.97
2023-02-22T14:34:16.441Z,101175.69
2023-02-22T14:36:55.105Z,101183.06
2023-02-22T14:39:37.896Z,101170.44
2023-02-22T14:42:15.989Z,101174.69
2023-02-22T14:44:57.678Z,101176.16
2023-02-22T14:47:40.059Z,101174.13
2023-02-22T14:50:23.437Z,101165.53
2023-02-22T14:53:04.466Z,101163.28
2023-02-22T14:55:42.149Z,101157.25
2023-02-22T14:58:21.892Z,101162.09
2023-02-22T15:00:57.215Z,101165.75
2023-02-22T15:03:40.043Z,101167.34
2023-02-22T15:09:30.224Z,101158.22
2023-02-22T15:12:18.684Z,101156.25
2023-02-22T15:14:52.017Z,101147.84
2023-02-22T15:17:27.848Z,101158.94
2023-02-22T15:20:02.263Z,101155.00
2023-02-22T15:22:40.036Z,101153.03
2023-02-22T15:25:15.243Z,101153.28
2023-02-22T15:27:50.284Z,101147.31
2023-02-22T15:30:30.091Z,101150.63
2023-02-22T15:33:15.399Z,101152.44
2023-02-22T15:35:57.050Z,101141.53
2023-02-22T15:38:32.621Z,101150.31
2023-02-22T15:41:08.868Z,101146.34
2023-02-22T15:43:41.338Z,101148.28
2023-02-22T15:46:16.461Z,101149.28
2023-02-22T15:49:07.066Z,101153.31
2023-02-22T15:51:46.779Z,101141.72
2023-02-22T15:54:27.174Z,101141.97
2023-02-22T15:57:00.369Z,101141.28
2023-02-22T15:59:35.319Z,101139.44
2023-02-22T16:02:08.545Z,101137.63
2023-02-22T16:04:45.912Z,101142.34
2023-02-22T16:07:24.417Z,101132.28
2023-02-22T16:09:56.341Z,101138.84
2023-02-22T16:12:31.027Z,101134.69
2023-02-22T16:15:03.217Z,101133.47
2023-02-22T16:17:56.050Z,101131.25
2023-02-22T16:20:39.050Z,101128.91
2023-02-22T16:23:29.132Z,101128.16
2023-02-22T16:26:23.602Z,101133.16
2023-02-22T16:28:58.331Z,101127.78
2023-02-22T16:31:34.164Z,101131.31
2023-02-22T16:34:06.921Z,101134.75
2023-02-22T16:36:45.376Z,101131.97
2023-02-22T16:39:25.289Z,101133.06
2023-02-22T16:41:59.804Z,101133.00
2023-02-22T16:44:31.617Z,101134.69
2023-02-22T16:47:03.740Z,101129.25
2023-02-22T16:49:35.122Z,101129.84
2023-02-22T16:52:10.605Z,101130.47
2023-02-22T16:54:48.831Z,101131.88
2023-02-22T16:57:23.954Z,101134.16
2023-02-22T16:59:55.573Z,101131.94
2023-02-22T17:02:28.133Z,101134.34
2023-02-22T17:04:59.919Z,101129.41
2023-02-22T17:07:33.024Z,101121.91
2023-02-22T17:10:08.903Z,101137.38
2023-02-22T17:12:44.301Z,101128.31
2023-02-22T17:15:24.998Z,101124.06
2023-02-22T17:17:59.943Z,101130.19
2023-02-22T17:20:33.180Z,101128.03
2023-02-22T17:23:08.597Z,101121.84
2023-02-22T17:25:45.985Z,101123.47
2023-02-22T17:28:19.225Z,101124.38
2023-02-22T17:30:52.268Z,101127.91
2023-02-22T17:33:28.157Z,101127.84
2023-02-22T17:36:02.418Z,101124.59
2023-02-22T17:38:35.752Z,101129.72
2023-02-22T17:41:11.627Z,101121.53
2023-02-22T17:43:43.956Z,101124.81
2023-02-22T17:46:16.129Z,101120.78
2023-02-22T17:48:49.219Z,101121.16
2023-02-22T17:51:21.481Z,101123.69
2023-02-22T17:53:55.606Z,101122.56
2023-02-22T17:56:29.898Z,101116.75
2023-02-22T17:59:02.057Z,101121.38
2023-02-22T18:01:35.838Z,101115.75
2023-02-22T18:04:08.305Z,101116.47
2023-02-22T18:06:53.783Z,101125.31
2023-02-22T18:09:26.604Z,101123.03
2023-02-22T18:12:01.825Z,101121.59
2023-02-22T18:14:34.469Z,101117.81
2023-02-22T18:17:06.219Z,101117.06
2023-02-22T18:19:38.336Z,101112.78
2023-02-22T18:22:11.012Z,101113.03
2023-02-22T18:24:43.256Z,101112.34
2023-02-22T18:27:18.004Z,101111.47
2023-02-22T18:29:50.317Z,101112.63
2023-02-22T18:32:22.418Z,101115.13
2023-02-22T18:34:55.035Z,101109.75
2023-02-22T18:37:28.579Z,101111.03
2023-02-22T18:40:02.047Z,101109.09
2023-02-22T18:42:40.353Z,101110.06
2023-02-22T18:45:14.526Z,101105.88
2023-02-22T18:47:47.537Z,101104.88
2023-02-22T18:50:19.686Z,101107.00
2023-02-22T18:52:51.312Z,101109.22
2023-02-22T18:55:24.419Z,101100.78
2023-02-22T18:57:59.745Z,101101.94
2023-02-22T19:00:31.830Z,101104.16
2023-02-22T19:03:05.535Z,101097.63
2023-02-22T19:05:39.166Z,101096.56
2023-02-22T19:08:11.849Z,101089.16
2023-02-22T19:10:44.168Z,101092.69
2023-02-22T19:13:19.408Z,101095.72
2023-02-22T19:15:51.780Z,101098.34
2023-02-22T19:18:24.009Z,101105.44
2023-02-22T19:21:00.187Z,101100.78
2023-02-22T19:23:34.536Z,101104.19
2023-02-22T19:26:09.684Z,101104.47
2023-02-22T19:28:44.520Z,101108.84
2023-02-22T19:31:18.586Z,101110.00
2023-02-22T19:33:53.844Z,101106.59
2023-02-22T19:36:26.479Z,101100.69
2023-02-22T19:38:58.324Z,101110.13
2023-02-22T19:41:30.679Z,101106.88
2023-02-22T19:44:05.179Z,101102.38
2023-02-22T19:46:38.072Z,101110.28
2023-02-22T19:49:10.912Z,101115.06
2023-02-22T19:51:43.153Z,101113.94
2023-02-22T19:54:21.161Z,101104.34
2023-02-22T19:56:54.824Z,101104.50
2023-02-22T19:59:29.171Z,101109.56
2023-02-22T20:02:03.002Z,101109.16
2023-02-22T20:04:34.392Z,101106.72
2023-02-22T20:07:06.587Z,101103.09
2023-02-22T20:09:40.705Z,101105.19
2023-02-22T20:12:12.454Z,101105.63
2023-02-22T20:14:46.913Z,101098.56
2023-02-22T20:17:18.706Z,101103.34
2023-02-22T20:19:50.748Z,101107.88
2023-02-22T20:22:22.698Z,101105.31
2023-02-22T20:24:54.267Z,101103.06
2023-02-22T20:27:27.486Z,101109.09
2023-02-22T20:30:01.651Z,101096.56
2023-02-22T20:32:36.013Z,101095.19
2023-02-22T20:35:08.998Z,101099.84
2023-02-22T20:37:42.749Z,101102.63
2023-02-22T20:40:14.316Z,101095.81
2023-02-22T20:42:47.951Z,101098.22
2023-02-22T20:45:21.977Z,101102.47
2023-02-22T20:47:54.959Z,101092.31
2023-02-22T20:50:26.512Z,101099.66
2023-02-22T20:52:59.205Z,101102.56
2023-02-22T20:55:31.519Z,101091.69
2023-02-22T20:58:03.809Z,101097.06
2023-02-22T21:00:38.119Z,101093.34
2023-02-22T21:03:10.319Z,101090.06
2023-02-22T21:05:45.844Z,101098.44
2023-02-22T21:08:18.666Z,101094.25
2023-02-22T21:10:51.788Z,101091.78
2023-02-22T21:13:24.926Z,101099.47
2023-02-22T21:15:59.930Z,101105.72
2023-02-22T21:18:32.313Z,101102.13
2023-02-22T21:21:10.632Z,101099.06
2023-02-22T21:23:44.547Z,101098.28
2023-02-22T21:26:19.056Z,101099.19
2023-02-22T21:28:51.922Z,101095.28
2023-02-22T21:31:28.247Z,101089.50
2023-02-22T21:34:02.614Z,101090.66
2023-02-22T21:36:35.408Z,101090.38
2023-02-22T21:39:18.470Z,101097.34
2023-02-22T21:44:47.235Z,101089.72
2023-02-22T21:47:22.299Z,101092.50
2023-02-22T21:49:54.112Z,101086.75
2023-02-22T21:52:26.774Z,101078.19
2023-02-22T21:54:58.694Z,101081.69
2023-02-22T21:57:32.430Z,101086.81
2023-02-22T22:00:13.120Z,101074.88
2023-02-22T22:02:49.302Z,101064.00
2023-02-22T22:05:31.950Z,101070.50
2023-02-22T22:08:05.863Z,101070.69
2023-02-22T22:10:37.050Z,63314.91
2023-02-22T22:13:09.233Z,63314.91
2023-02-22T22:15:40.934Z,63314.91
2023-02-22T22:18:18.434Z,63314.91
2023-02-22T22:20:52.026Z,63314.91
2023-02-22T22:23:26.688Z,63314.91
2023-02-22T22:26:09.941Z,63314.91
2023-02-22T22:28:46.364Z,63314.91
2023-02-22T22:31:24.187Z,63314.91
2023-02-22T22:34:00.570Z,63314.91
2023-02-22T22:36:34.964Z,63314.91
2023-02-22T22:39:14.621Z,63314.91
2023-02-22T22:41:50.286Z,63314.91
2023-02-22T22:44:22.628Z,63314.91
2023-02-22T22:47:06.207Z,63314.91
2023-02-22T22:49:43.105Z,63314.91
2023-02-22T22:52:16.766Z,63314.91
2023-02-22T22:54:50.925Z,63314.91
2023-02-22T22:57:23.810Z,63314.91
2023-02-22T22:59:56.289Z,63314.91
2023-02-22T23:02:29.472Z,63314.91
2023-02-22T23:05:13.153Z,63314.91
2023-02-22T23:07:45.017Z,63314.91
2023-02-22T23:10:17.138Z,63314.91
2023-02-22T23:12:48.916Z,63314.91
2023-02-22T23:15:21.288Z,63314.91
2023-02-22T23:17:56.290Z,63314.91
2023-02-22T23:20:31.022Z,63314.91
2023-02-22T23:23:03.032Z,63314.91
2023-02-22T23:25:35.261Z,63314.91
2023-02-22T23:28:14.894Z,63314.91
2023-02-22T23:30:47.263Z,63314.91
2023-02-22T23:33:19.501Z,63314.91
2023-02-22T23:35:54.388Z,63314.91
2023-02-22T23:38:26.981Z,63314.91
2023-02-22T23:40:59.463Z,63314.91
2023-02-22T23:43:32.795Z,63314.91
2023-02-22T23:46:11.029Z,63314.91
2023-02-22T23:48:46.841Z,63314.91
2023-02-22T23:51:25.825Z,63314.91
2023-02-22T23:53:58.668Z,63314.91
2023-02-22T23:56:31.299Z,63314.91
2023-02-22T23:59:06.995Z,63314.91
